Time;durP1;ratioP1;P1;durP2;ratioP2;P2;SDS_P1;SDS_P2;PMS_P1;PMS_P2;Temp;Humidity;BMP_temperature;BMP_pressure;BME280_temperature;BME280_humidity;BME280_pressure;Samples;Min_cycle;Max_cycle;Signal;HPM_P1;HPM_P2
2024/02/29 00:41:56;;;;;;;27.17;14.40;;;7.20;99.90;;;;;;4730988;29;20214;-87
2024/02/29 01:02:10;;;;;;;22.53;13.00;;;7.20;99.90;;;;;;4649047;30;20233;-87
2024/02/29 01:27:47;;;;;;;21.60;13.03;;;7.40;99.90;;;;;;4695591;29;20840;-86
2024/02/29 01:58:00;;;;;;;16.47;10.90;;;7.20;99.90;;;;;;4650080;29;20660;-85
2024/02/29 02:23:28;;;;;;;19.83;11.40;;;7.20;99.90;;;;;;4673444;29;20325;-87
2024/02/29 02:43:25;;;;;;;17.10;10.77;;;7.20;99.90;;;;;;4666717;29;21376;-89
2024/02/29 03:08:50;;;;;;;18.57;11.47;;;7.30;99.90;;;;;;4666690;29;20666;-84
2024/02/29 03:29:22;;;;;;;21.60;13.13;;;7.00;99.90;;;;;;4615419;30;20221;-86
2024/02/29 03:59:47;;;;;;;32.37;15.87;;;7.10;99.90;;;;;;4660697;30;20227;-86
2024/02/29 04:25:16;;;;;;;28.90;16.77;;;7.00;99.90;;;;;;4620333;30;20268;-87
2024/02/29 04:50:48;;;;;;;30.97;17.67;;;6.90;99.90;;;;;;4634675;30;20349;-87
2024/02/29 04:55:08;;;;;;;30.70;17.50;;;7.00;99.90;;;;;;4572739;30;21128;-87
2024/02/29 05:15:55;;;;;;;26.83;14.63;;;6.90;99.90;;;;;;4588596;30;20234;-85
2024/02/29 05:41:24;;;;;;;22.83;13.03;;;6.90;99.90;;;;;;4539273;30;20520;-86
2024/02/29 06:16:56;;;;;;;25.63;14.23;;;7.00;99.90;;;;;;4679963;29;20288;-85
2024/02/29 06:51:52;;;;;;;18.73;12.17;;;7.10;99.90;;;;;;4628371;29;20537;-83
2024/02/29 07:22:54;;;;;;;21.63;12.33;;;7.20;99.90;;;;;;4570876;29;21086;-83
2024/02/29 07:52:59;;;;;;;21.30;12.77;;;7.70;99.90;;;;;;4558797;30;21355;-83
2024/02/29 08:13:20;;;;;;;21.33;12.23;;;7.80;99.90;;;;;;4539471;30;20309;-81
2024/02/29 08:33:36;;;;;;;21.40;12.43;;;7.90;99.90;;;;;;4592922;30;20706;-81
2024/02/29 08:59:16;;;;;;;25.27;14.43;;;7.90;99.90;;;;;;4681179;29;20263;-80
2024/02/29 09:24:38;;;;;;;27.23;14.47;;;8.00;99.90;;;;;;4689072;29;20618;-82
2024/02/29 09:54:27;;;;;;;25.73;14.37;;;8.00;99.90;;;;;;4561086;29;21218;-81
2024/02/29 10:15:12;;;;;;;26.33;15.17;;;8.30;99.90;;;;;;4583633;30;20784;-83
2024/02/29 10:45:46;;;;;;;36.43;18.40;;;8.30;99.90;;;;;;4701480;29;20298;-84
2024/02/29 11:05:41;;;;;;;49.23;21.97;;;8.30;99.90;;;;;;4606927;29;20470;-82
2024/02/29 11:31:20;;;;;;;46.97;20.60;;;8.40;99.90;;;;;;4609578;29;20214;-82
2024/02/29 11:51:31;;;;;;;42.27;20.47;;;8.50;99.90;;;;;;4530056;30;20320;-83
2024/02/29 12:16:41;;;;;;;33.17;19.67;;;9.10;99.90;;;;;;4406493;31;20773;-82
2024/02/29 12:42:27;;;;;;;33.37;18.53;;;9.50;99.90;;;;;;4477775;30;20615;-82
2024/02/29 13:53:14;;;;;;;23.10;15.60;;;10.20;99.90;;;;;;4505069;30;21140;-83
2024/02/29 14:23:39;;;;;;;20.53;14.77;;;10.10;99.90;;;;;;4478080;30;20844;-81
2024/02/29 15:39:26;;;;;;;19.53;12.87;;;10.20;99.90;;;;;;4666841;29;20526;-87
2024/02/29 16:00:27;;;;;;;19.90;14.30;;;10.10;99.90;;;;;;4703884;29;20372;-83
2024/02/29 16:20:11;;;;;;;22.53;14.83;;;9.90;99.90;;;;;;4495484;31;20306;-87
2024/02/29 16:40:54;;;;;;;26.50;15.90;;;9.80;99.90;;;;;;4516393;31;20261;-83
2024/02/29 17:11:09;;;;;;;24.00;16.33;;;9.70;99.90;;;;;;4629608;30;20744;-87
2024/02/29 17:31:47;;;;;;;23.83;16.83;;;9.70;99.90;;;;;;4735665;29;20255;-86
2024/02/29 18:01:46;;;;;;;25.77;17.70;;;9.60;99.90;;;;;;4612507;30;20297;-85
2024/02/29 18:26:50;;;;;;;32.73;21.37;;;9.50;99.90;;;;;;4685098;29;20251;-88
2024/02/29 18:47:44;;;;;;;26.40;18.40;;;9.50;99.90;;;;;;4640789;30;20322;-87
2024/02/29 19:08:09;;;;;;;25.93;17.20;;;9.40;99.90;;;;;;4652706;30;20421;-88
2024/02/29 19:12:28;;;;;;;31.60;19.30;;;9.40;99.90;;;;;;4623886;30;20616;-87
2024/02/29 19:33:24;;;;;;;29.03;19.97;;;9.40;99.90;;;;;;4631216;30;20290;-88
2024/02/29 19:58:34;;;;;;;29.20;18.83;;;9.40;99.90;;;;;;4739662;29;20205;-86
2024/02/29 20:24:09;;;;;;;35.43;20.40;;;9.30;99.90;;;;;;4578726;30;20275;-85
2024/02/29 20:49:22;;;;;;;28.40;20.63;;;9.40;99.90;;;;;;4500489;31;20229;-86
2024/02/29 21:09:45;;;;;;;34.47;20.57;;;9.40;99.90;;;;;;4548723;30;20678;-85
2024/02/29 21:39:35;;;;;;;33.93;21.37;;;9.50;99.90;;;;;;4620856;30;20240;-86
2024/02/29 22:05:24;;;;;;;40.10;25.90;;;9.50;99.90;;;;;;4601435;30;20304;-88
2024/02/29 22:25:18;;;;;;;34.23;21.63;;;9.60;99.90;;;;;;4542167;30;20489;-87
2024/02/29 22:50:57;;;;;;;34.83;22.47;;;9.90;99.90;;;;;;4580150;30;20214;-86
2024/02/29 23:11:34;;;;;;;36.90;23.93;;;9.90;99.90;;;;;;4568907;30;20224;-86
2024/02/29 23:36:28;;;;;;;45.17;26.50;;;9.90;99.90;;;;;;4607491;30;20410;-86
